Time;durP1;ratioP1;P1;durP2;ratioP2;P2;SDS_P1;SDS_P2;PMS_P1;PMS_P2;Temp;Humidity;BMP_temperature;BMP_pressure;BME280_temperature;BME280_humidity;BME280_pressure;Samples;Min_cycle;Max_cycle;Signal;HPM_P1;HPM_P2
2023/01/13 00:01:09;;;;;;;1.75;0.80;;;;;;;6.53;79.58;99822.97;4895250;29;20044;-71
2023/01/13 00:03:36;;;;;;;1.67;0.80;;;;;;;6.56;79.38;99818.16;4893162;29;20052;-71
2023/01/13 00:06:04;;;;;;;1.33;0.90;;;;;;;6.47;79.71;99832.44;4876619;29;20075;-71
2023/01/13 00:08:31;;;;;;;1.42;0.50;;;;;;;6.36;79.57;99819.38;4875833;29;20067;-71
2023/01/13 00:10:57;;;;;;;1.88;0.65;;;;;;;6.62;78.76;99825.56;4876521;29;20065;-70
2023/01/13 00:13:27;;;;;;;1.60;0.80;;;;;;;6.60;78.68;99824.88;4876078;29;20052;-70
2023/01/13 00:15:58;;;;;;;2.28;0.60;;;;;;;6.52;79.27;99824.81;4876286;29;20057;-71
2023/01/13 00:18:25;;;;;;;5.10;0.60;;;;;;;6.67;78.94;99823.28;4876025;29;20068;-71
2023/01/13 00:21:12;;;;;;;1.63;0.68;;;;;;;6.36;79.26;99824.72;4859821;29;20056;-72
2023/01/13 00:23:39;;;;;;;2.60;0.70;;;;;;;6.55;78.93;99829.00;4875133;29;20053;-71
2023/01/13 00:26:09;;;;;;;0.95;0.70;;;;;;;6.54;78.81;99820.19;4876564;29;20056;-71
2023/01/13 00:28:36;;;;;;;2.47;0.95;;;;;;;6.59;78.45;99825.84;4875786;29;20053;-72
2023/01/13 00:31:08;;;;;;;2.75;0.65;;;;;;;6.68;78.30;99810.78;4876025;29;20059;-72
2023/01/13 00:33:35;;;;;;;1.27;0.60;;;;;;;6.59;78.31;99817.88;4876098;29;20053;-72
2023/01/13 00:36:03;;;;;;;2.50;0.95;;;;;;;6.65;78.04;99803.09;4876104;29;20467;-72
2023/01/13 00:38:31;;;;;;;1.13;0.50;;;;;;;6.59;78.21;99806.38;4875887;29;20414;-71
2023/01/13 00:41:06;;;;;;;2.45;0.65;;;;;;;6.66;78.36;99810.91;4876096;29;20061;-72
2023/01/13 00:43:35;;;;;;;1.58;0.70;;;;;;;6.59;78.51;99809.03;4875379;29;20053;-72
2023/01/13 00:46:03;;;;;;;2.22;0.47;;;;;;;6.71;78.10;99797.97;4874773;29;20061;-72
2023/01/13 00:48:30;;;;;;;1.42;0.63;;;;;;;6.74;77.74;99819.94;4878026;29;20045;-71
2023/01/13 00:51:01;;;;;;;4.22;0.73;;;;;;;6.59;77.99;99815.19;4879760;29;20064;-71
2023/01/13 00:53:31;;;;;;;1.80;0.60;;;;;;;6.61;77.80;99812.41;4879461;29;20068;-71
2023/01/13 00:56:07;;;;;;;3.25;0.60;;;;;;;6.65;77.71;99808.41;4879531;29;20060;-71
2023/01/13 00:58:34;;;;;;;3.80;0.90;;;;;;;6.67;77.60;99812.59;4879770;29;20482;-71
2023/01/13 01:01:02;;;;;;;0.75;0.50;;;;;;;6.69;77.84;99805.28;4878982;29;20053;-71
2023/01/13 01:03:29;;;;;;;5.80;0.82;;;;;;;6.65;78.02;99805.75;4880135;29;20095;-72
2023/01/13 01:06:02;;;;;;;1.35;0.52;;;;;;;6.63;77.54;99816.59;4896866;29;20057;-72
2023/01/13 01:08:28;;;;;;;0.75;0.50;;;;;;;6.78;77.55;99818.66;4898087;29;20473;-71
2023/01/13 01:11:10;;;;;;;1.52;0.60;;;;;;;6.60;77.39;99816.91;4895473;29;20537;-72
2023/01/13 01:13:37;;;;;;;0.68;0.55;;;;;;;6.70;77.68;99822.09;4897519;29;20402;-72
2023/01/13 01:16:05;;;;;;;2.40;0.50;;;;;;;6.70;77.52;99820.28;4897933;29;20063;-71
2023/01/13 01:18:37;;;;;;;0.98;0.55;;;;;;;6.58;77.19;99821.53;4897978;29;20131;-71
2023/01/13 01:21:05;;;;;;;2.92;0.52;;;;;;;6.58;77.14;99820.69;4897519;29;20577;-72
2023/01/13 01:23:32;;;;;;;2.13;0.80;;;;;;;6.68;77.00;99810.78;4897621;29;20049;-72
2023/01/13 01:26:09;;;;;;;2.42;0.70;;;;;;;6.55;77.45;99811.19;4897673;29;20056;-71
2023/01/13 01:28:36;;;;;;;1.98;0.75;;;;;;;6.68;77.28;99814.28;4897452;29;20063;-72
2023/01/13 01:31:06;;;;;;;2.22;0.60;;;;;;;6.64;77.10;99812.91;4897558;29;20064;-72
2023/01/13 01:33:33;;;;;;;2.25;0.52;;;;;;;6.82;76.53;99812.84;4897398;29;20049;-72
2023/01/13 01:36:01;;;;;;;3.25;1.08;;;;;;;6.73;77.08;99807.63;4897581;29;20075;-71
2023/01/13 01:38:28;;;;;;;1.90;0.57;;;;;;;6.72;76.49;99793.47;4897086;29;20052;-72
2023/01/13 01:40:55;;;;;;;4.47;0.63;;;;;;;6.62;76.54;99801.56;4897932;29;20052;-72
2023/01/13 01:46:07;;;;;;;2.03;0.55;;;;;;;6.80;76.10;99803.34;4896486;29;20056;-71
2023/01/13 01:48:39;;;;;;;1.05;0.55;;;;;;;6.63;75.94;99795.25;4897340;29;20044;-72
2023/01/13 01:51:10;;;;;;;0.70;0.40;;;;;;;6.85;75.29;99809.03;4896324;29;20053;-72
2023/01/13 01:53:37;;;;;;;2.53;0.68;;;;;;;6.81;75.92;99791.69;4897281;29;20057;-71
2023/01/13 01:56:06;;;;;;;1.60;0.60;;;;;;;6.98;75.20;99796.13;4897570;29;20418;-71
2023/01/13 01:58:53;;;;;;;2.83;0.60;;;;;;;6.70;75.18;99795.44;4896267;29;20568;-72
2023/01/13 02:01:19;;;;;;;1.30;0.68;;;;;;;6.77;75.06;99795.66;4897028;29;20055;-72
2023/01/13 02:03:55;;;;;;;1.00;0.47;;;;;;;6.84;75.17;99796.69;4893406;29;20490;-72
2023/01/13 02:07:11;;;;;;;2.90;0.80;;;;;;;6.87;74.68;99799.88;4878012;29;20053;-71
2023/01/13 02:09:37;;;;;;;7.00;0.40;;;;;;;6.80;75.27;99793.50;4877832;29;20048;-71
2023/01/13 02:15:13;;;;;;;1.02;0.50;;;;;;;6.73;75.11;99786.28;4821365;29;20050;-72
2023/01/13 02:18:09;;;;;;;1.52;0.52;;;;;;;6.75;75.36;99784.31;4820529;29;20061;-71
2023/01/13 02:21:01;;;;;;;4.07;0.75;;;;;;;6.65;75.28;99781.75;4819537;29;20112;-71
2023/01/13 02:26:40;;;;;;;3.05;0.30;;;;;;;6.67;75.31;99774.47;4819936;29;20077;-72
2023/01/13 02:32:22;;;;;;;2.15;0.68;;;;;;;6.69;75.17;99767.94;4821150;29;20463;-72
2023/01/13 02:35:03;;;;;;;2.47;0.63;;;;;;;6.62;75.25;99776.75;4819329;29;20055;-72
2023/01/13 02:37:34;;;;;;;4.77;0.87;;;;;;;6.50;75.38;99772.69;4821037;29;20050;-71
2023/01/13 02:40:09;;;;;;;1.08;0.40;;;;;;;6.63;75.47;99765.09;4820220;29;20050;-72
2023/01/13 02:45:34;;;;;;;5.00;0.73;;;;;;;6.57;75.31;99768.41;4836202;29;20496;-71
2023/01/13 02:48:06;;;;;;;1.02;0.30;;;;;;;6.74;75.27;99771.97;4876976;29;20447;-71
2023/01/13 02:50:40;;;;;;;0.88;0.50;;;;;;;6.47;75.84;99764.00;4876829;29;20127;-72
2023/01/13 02:53:17;;;;;;;0.90;0.40;;;;;;;6.47;75.58;99763.16;4877598;29;20061;-72
2023/01/13 02:55:47;;;;;;;2.05;1.10;;;;;;;6.51;75.35;99764.53;4877605;29;20490;-72
2023/01/13 02:58:17;;;;;;;0.60;0.30;;;;;;;6.33;75.34;99761.91;4876581;29;20052;-72
2023/01/13 03:00:45;;;;;;;0.45;0.30;;;;;;;6.43;75.54;99767.16;4876730;29;20053;-71
2023/01/13 03:03:12;;;;;;;1.17;0.32;;;;;;;6.43;75.56;99762.66;4877056;29;20401;-71
2023/01/13 03:05:42;;;;;;;1.15;0.40;;;;;;;6.36;75.55;99772.25;4893953;29;20421;-71
2023/01/13 03:08:34;;;;;;;1.88;0.30;;;;;;;6.47;74.79;99768.50;4885566;29;20556;-71
2023/01/13 03:11:11;;;;;;;2.10;0.40;;;;;;;6.45;74.93;99757.97;4895133;29;20391;-71
2023/01/13 03:14:03;;;;;;;1.67;0.47;;;;;;;6.49;74.95;99761.16;4895186;29;20421;-73
2023/01/13 03:16:48;;;;;;;1.42;0.60;;;;;;;6.35;75.34;99741.28;4895410;29;20052;-73
2023/01/13 03:19:32;;;;;;;0.40;0.25;;;;;;;6.34;74.90;99736.13;4896077;29;20136;-72
2023/01/13 03:22:08;;;;;;;1.42;0.32;;;;;;;6.38;75.31;99740.97;4895072;29;20056;-71
2023/01/13 03:24:57;;;;;;;1.80;0.40;;;;;;;6.38;75.49;99737.47;4895436;29;20132;-71
2023/01/13 03:27:45;;;;;;;1.27;0.45;;;;;;;6.44;75.22;99743.00;4889342;29;20052;-71
2023/01/13 03:30:21;;;;;;;2.63;0.50;;;;;;;6.58;75.00;99748.75;4895602;29;20045;-72
2023/01/13 03:32:52;;;;;;;1.88;0.28;;;;;;;6.29;75.22;99741.06;4895597;29;20049;-71
2023/01/13 03:35:25;;;;;;;1.13;0.20;;;;;;;6.40;75.15;99746.97;4895578;29;20052;-73
2023/01/13 03:38:01;;;;;;;1.60;0.50;;;;;;;6.44;75.08;99748.31;4895358;29;20044;-72
2023/01/13 03:40:36;;;;;;;1.70;0.30;;;;;;;6.45;74.55;99751.81;4894948;29;20057;-72
2023/01/13 03:46:01;;;;;;;1.52;0.50;;;;;;;6.23;75.21;99756.66;4895247;29;20079;-73
2023/01/13 03:48:31;;;;;;;1.10;0.40;;;;;;;6.26;75.32;99744.06;4895290;29;20087;-71
2023/01/13 03:51:05;;;;;;;0.38;0.25;;;;;;;6.21;75.56;99745.31;4895052;29;20052;-72
2023/01/13 03:53:53;;;;;;;3.65;0.40;;;;;;;6.19;75.57;99755.31;4895479;29;20103;-71
2023/01/13 03:56:27;;;;;;;2.97;0.40;;;;;;;6.18;75.46;99747.44;4893892;29;20593;-71
2023/01/13 03:58:57;;;;;;;0.20;0.20;;;;;;;6.17;75.43;99753.78;4894110;29;20445;-73
2023/01/13 04:01:31;;;;;;;0.98;0.28;;;;;;;6.12;75.72;99746.25;4878090;29;20136;-73
2023/01/13 04:04:06;;;;;;;1.27;0.10;;;;;;;6.19;75.39;99746.47;4889555;29;20044;-72
2023/01/13 04:06:40;;;;;;;0.55;0.25;;;;;;;6.32;75.09;99732.75;4875529;29;20423;-72
2023/01/13 04:09:29;;;;;;;1.27;0.40;;;;;;;6.13;75.05;99737.28;4875456;29;20055;-72
2023/01/13 04:12:19;;;;;;;0.98;0.40;;;;;;;6.10;75.43;99739.41;4874216;29;20053;-73
2023/01/13 04:14:46;;;;;;;1.63;0.50;;;;;;;6.17;75.41;99730.63;4876327;29;20055;-73
2023/01/13 04:17:14;;;;;;;1.25;0.60;;;;;;;6.23;74.99;99729.19;4876797;29;20048;-72
2023/01/13 04:19:41;;;;;;;1.15;0.38;;;;;;;6.28;75.22;99726.06;4875928;29;20423;-73
2023/01/13 04:22:07;;;;;;;1.50;0.60;;;;;;;6.24;75.25;99742.34;4875435;29;20156;-72
2023/01/13 04:24:35;;;;;;;1.88;0.90;;;;;;;6.31;75.06;99736.41;4878930;29;20049;-73
2023/01/13 04:27:02;;;;;;;1.95;0.50;;;;;;;6.16;75.06;99739.63;4879647;29;20049;-72
2023/01/13 04:29:29;;;;;;;1.70;0.40;;;;;;;6.32;74.88;99732.75;4879431;29;20076;-72
2023/01/13 04:31:55;;;;;;;0.63;0.40;;;;;;;6.03;75.10;99739.19;4878869;29;20051;-72
2023/01/13 04:34:22;;;;;;;3.58;0.40;;;;;;;6.21;74.89;99753.28;4878775;29;20421;-72
2023/01/13 04:36:48;;;;;;;2.55;0.52;;;;;;;6.24;74.82;99753.00;4863969;29;20049;-71
2023/01/13 04:39:15;;;;;;;0.60;0.30;;;;;;;6.22;74.66;99749.66;4879750;29;20049;-72
2023/01/13 04:42:01;;;;;;;1.67;0.68;;;;;;;6.20;74.53;99762.28;4879548;29;20504;-72
2023/01/13 04:44:30;;;;;;;1.88;0.40;;;;;;;6.26;74.80;99752.88;4878390;29;20045;-72
2023/01/13 04:46:57;;;;;;;2.83;0.40;;;;;;;6.31;74.52;99747.06;4879611;29;20152;-73
2023/01/13 04:49:24;;;;;;;3.95;0.70;;;;;;;6.12;75.22;99753.41;4878581;29;20056;-72
2023/01/13 04:51:50;;;;;;;0.32;0.28;;;;;;;6.24;74.68;99758.31;4879806;29;20578;-69
2023/01/13 04:54:17;;;;;;;0.95;0.20;;;;;;;6.22;75.12;99757.66;4880433;29;20048;-72
2023/01/13 04:56:43;;;;;;;1.35;0.30;;;;;;;6.27;74.46;99767.03;4878852;29;20048;-72
2023/01/13 04:59:10;;;;;;;2.83;0.55;;;;;;;6.09;75.16;99764.38;4878810;29;20041;-71
2023/01/13 05:01:37;;;;;;;2.13;0.20;;;;;;;6.35;74.63;99764.41;4879735;29;20056;-73
2023/01/13 05:04:05;;;;;;;0.30;0.22;;;;;;;6.31;74.37;99763.88;4884112;29;20087;-72
2023/01/13 05:06:32;;;;;;;0.82;0.43;;;;;;;6.34;74.43;99763.59;4896474;29;20044;-72
2023/01/13 05:08:58;;;;;;;1.75;0.35;;;;;;;6.37;74.19;99767.78;4896558;29;20131;-72
2023/01/13 05:17:02;;;;;;;1.27;0.57;;;;;;;6.53;73.92;99778.53;4898281;29;20455;-71
2023/01/13 05:19:33;;;;;;;1.15;0.40;;;;;;;6.62;74.23;99782.06;4896360;29;20132;-72
2023/01/13 05:27:31;;;;;;;0.32;0.32;;;;;;;6.53;74.96;99775.88;4896324;29;20072;-71
2023/01/13 05:29:58;;;;;;;1.48;0.52;;;;;;;6.63;74.23;99775.75;4896740;29;20057;-72
2023/01/13 05:32:26;;;;;;;2.10;0.88;;;;;;;6.57;74.71;99776.41;4897270;29;20463;-71
2023/01/13 05:34:54;;;;;;;2.80;1.23;;;;;;;6.53;74.74;99773.22;4895108;29;20529;-72
2023/01/13 05:37:22;;;;;;;2.67;1.23;;;;;;;6.62;74.30;99782.06;4896287;29;20060;-72
2023/01/13 05:45:19;;;;;;;0.82;0.40;;;;;;;6.61;74.31;99781.25;4896142;29;20487;-72
2023/01/13 05:47:46;;;;;;;1.00;0.45;;;;;;;6.58;74.34;99776.22;4896523;29;20044;-72
2023/01/13 05:50:12;;;;;;;0.65;0.40;;;;;;;6.60;74.29;99773.38;4896096;29;20053;-72
2023/01/13 05:52:39;;;;;;;0.80;0.50;;;;;;;6.55;74.21;99779.19;4895490;29;20053;-71
2023/01/13 05:55:06;;;;;;;1.42;0.47;;;;;;;6.46;74.45;99783.66;4897571;29;20044;-72
2023/01/13 05:57:32;;;;;;;1.83;0.52;;;;;;;6.55;74.18;99797.03;4896134;29;20060;-72
2023/01/13 05:59:59;;;;;;;1.30;0.40;;;;;;;6.58;73.71;99796.72;4897363;29;20052;-72
2023/01/13 06:02:25;;;;;;;0.93;0.50;;;;;;;6.70;73.13;99787.44;4895498;29;20127;-73
2023/01/13 06:04:52;;;;;;;1.50;0.45;;;;;;;6.68;73.26;99787.63;4885791;29;20069;-71
2023/01/13 06:07:18;;;;;;;0.45;0.20;;;;;;;6.78;72.69;99794.66;4877971;29;20049;-72
2023/01/13 06:09:45;;;;;;;4.30;0.50;;;;;;;6.63;72.98;99779.28;4877318;29;20400;-71
2023/01/13 06:12:13;;;;;;;1.67;0.30;;;;;;;6.68;72.78;99779.63;4876951;29;20045;-72
2023/01/13 06:14:39;;;;;;;3.75;0.73;;;;;;;6.69;72.63;99786.59;4876606;29;20143;-70
2023/01/13 06:17:08;;;;;;;1.50;0.68;;;;;;;6.66;73.20;99783.44;4877472;29;20053;-74
2023/01/13 06:19:35;;;;;;;1.05;0.32;;;;;;;6.69;72.78;99794.59;4877665;29;20077;-72
2023/01/13 06:22:16;;;;;;;1.08;0.50;;;;;;;6.85;72.09;99809.03;4876918;29;20052;-72
2023/01/13 06:24:44;;;;;;;1.48;0.50;;;;;;;6.74;72.81;99809.28;4876910;29;20053;-72
2023/01/13 06:27:11;;;;;;;1.13;0.60;;;;;;;6.69;72.20;99805.28;4868696;29;20052;-72
2023/01/13 06:29:38;;;;;;;2.67;0.60;;;;;;;6.75;72.42;99806.47;4877076;29;20049;-72
2023/01/13 06:32:11;;;;;;;2.28;0.28;;;;;;;6.76;72.69;99801.97;4877397;29;20068;-72
2023/01/13 06:34:40;;;;;;;2.15;0.70;;;;;;;6.79;72.52;99802.50;4877583;29;20518;-73
2023/01/13 06:37:06;;;;;;;1.45;0.30;;;;;;;6.50;73.47;99802.84;4876956;29;20153;-71
2023/01/13 06:39:34;;;;;;;2.65;0.57;;;;;;;6.63;73.08;99811.25;4860734;29;20099;-71
2023/01/13 06:44:48;;;;;;;0.40;0.30;;;;;;;7.01;72.79;99795.75;4876971;29;20049;-71
2023/01/13 06:47:14;;;;;;;1.48;0.60;;;;;;;6.85;73.70;99783.22;4876699;29;20041;-72
2023/01/13 06:49:41;;;;;;;2.25;0.57;;;;;;;7.16;72.71;99756.84;4877346;29;20061;-72
2023/01/13 06:52:07;;;;;;;0.98;0.50;;;;;;;6.84;73.18;99773.56;4876930;29;20495;-71
2023/01/13 06:54:34;;;;;;;1.27;0.57;;;;;;;6.97;73.81;99783.75;4860795;29;20120;-71
2023/01/13 06:57:01;;;;;;;0.10;0.10;;;;;;;6.88;73.78;99793.56;4877307;29;20049;-72
2023/01/13 06:59:28;;;;;;;0.65;0.25;;;;;;;6.63;74.80;99799.72;4877218;29;20102;-71
2023/01/13 07:01:54;;;;;;;1.00;0.70;;;;;;;6.66;75.22;99786.09;4877253;29;20052;-72
2023/01/13 07:04:21;;;;;;;2.75;1.30;;;;;;;6.76;74.98;99793.97;4885391;29;20052;-72
2023/01/13 07:06:47;;;;;;;0.70;0.50;;;;;;;6.66;75.00;99784.25;4894910;29;20044;-72
2023/01/13 07:09:14;;;;;;;5.18;0.70;;;;;;;6.73;74.46;99791.63;4895167;29;20127;-71
2023/01/13 07:11:40;;;;;;;2.53;0.80;;;;;;;6.63;74.03;99787.25;4895855;29;20063;-71
2023/01/13 07:16:53;;;;;;;4.25;1.63;;;;;;;6.68;73.99;99792.94;4895679;29;20037;-71
2023/01/13 07:19:22;;;;;;;5.20;0.80;;;;;;;6.58;73.86;99776.22;4895517;29;20076;-71
2023/01/13 07:21:52;;;;;;;1.00;0.40;;;;;;;6.65;73.48;99755.94;4895912;29;20120;-72
2023/01/13 07:24:19;;;;;;;15.85;1.00;;;;;;;6.70;73.25;99764.31;4894630;29;20516;-74
2023/01/13 07:26:46;;;;;;;2.55;0.60;;;;;;;6.73;73.19;99780.97;4895023;29;20125;-72
2023/01/13 07:29:12;;;;;;;3.08;0.80;;;;;;;6.85;72.85;99787.72;4894843;29;20053;-72
2023/01/13 07:31:39;;;;;;;1.30;0.60;;;;;;;6.86;72.66;99773.38;4895325;29;20166;-74
2023/01/13 07:34:06;;;;;;;0.50;0.30;;;;;;;6.78;72.42;99766.19;4883232;29;20105;-75
2023/01/13 07:36:33;;;;;;;1.83;0.60;;;;;;;6.67;72.65;99788.63;4877042;29;20052;-74
2023/01/13 07:38:59;;;;;;;1.67;0.50;;;;;;;6.56;72.84;99804.00;4876287;29;20123;-74
2023/01/13 07:44:11;;;;;;;2.80;0.80;;;;;;;6.69;72.08;99799.94;4876958;29;20422;-75
2023/01/13 07:46:38;;;;;;;3.65;0.50;;;;;;;6.74;71.71;99801.28;4876586;29;20049;-75
2023/01/13 07:49:06;;;;;;;7.03;1.52;;;;;;;6.76;70.97;99800.16;4876373;29;20051;-75
2023/01/13 07:51:37;;;;;;;2.03;0.60;;;;;;;6.63;71.28;99815.72;4881133;29;20105;-72
2023/01/13 07:54:04;;;;;;;5.63;1.10;;;;;;;6.70;70.87;99806.97;4897724;29;20064;-72
2023/01/13 08:01:56;;;;;;;1.42;0.60;;;;;;;6.65;69.96;99808.41;5157522;23;20059;-72
2023/01/13 08:04:23;;;;;;;3.53;0.60;;;;;;;6.54;70.04;99811.34;4963570;28;20034;-72
2023/01/13 08:09:24;;;;;;;3.28;1.10;;;;;;;6.52;69.58;99834.63;5524890;23;20048;-72
2023/01/13 08:14:40;;;;;;;2.67;0.65;;;;;;;6.41;69.41;99835.72;5345878;23;20117;-73
2023/01/13 08:17:08;;;;;;;8.10;2.40;;;;;;;6.54;69.41;99844.16;4963022;28;20067;-73
2023/01/13 08:20:06;;;;;;;5.70;2.10;;;;;;;6.57;69.30;99851.84;5577614;23;21255;31
2023/01/13 08:22:33;;;;;;;5.35;1.98;;;;;;;6.59;69.27;99863.16;4923017;29;20079;-74
2023/01/13 08:24:59;;;;;;;7.45;2.53;;;;;;;6.58;69.43;99864.16;4924836;29;20051;-73
2023/01/13 08:27:26;;;;;;;5.38;1.60;;;;;;;6.57;69.35;99859.00;5513370;23;20027;-73
2023/01/13 08:29:53;;;;;;;4.32;1.73;;;;;;;6.56;69.43;99859.97;4963373;28;20047;-73
2023/01/13 08:34:54;;;;;;;1.95;0.90;;;;;;;6.45;69.84;99843.25;5107370;23;20039;-72
2023/01/13 08:37:21;;;;;;;3.50;0.63;;;;;;;6.49;70.30;99854.44;4947558;29;20099;-73
2023/01/13 08:42:25;;;;;;;4.43;1.10;;;;;;;6.54;70.00;99846.81;5901651;23;20226;-73
2023/01/13 08:44:53;;;;;;;2.75;1.02;;;;;;;6.50;70.46;99842.81;4963772;28;20106;-73
2023/01/13 08:47:20;;;;;;;1.55;0.93;;;;;;;6.65;69.89;99827.06;5721453;23;20043;-72
2023/01/13 08:49:46;;;;;;;4.85;0.90;;;;;;;6.45;70.70;99856.56;4944428;29;20042;-73
2023/01/13 08:52:13;;;;;;;2.47;1.02;;;;;;;6.56;70.72;99873.31;4944265;29;20091;-73
2023/01/13 08:59:57;;;;;;;1.55;0.75;;;;;;;6.65;70.53;99883.88;5332075;23;20027;-72
2023/01/13 09:02:24;;;;;;;3.00;1.00;;;;;;;6.64;70.71;99887.53;4963926;28;20035;-72
2023/01/13 09:10:28;;;;;;;3.42;1.10;;;;;;;6.44;69.74;99787.47;5366964;23;20048;-71
2023/01/13 09:13:13;;;;;;;2.08;0.70;;;;;;;6.55;69.37;99717.91;4956715;29;20043;-71
2023/01/13 09:15:42;;;;;;;5.32;1.38;;;;;;;6.66;69.14;99757.59;4954212;29;20059;-72
2023/01/13 09:18:09;;;;;;;3.17;1.05;;;;;;;6.64;69.79;99826.25;4955893;29;20044;-71
2023/01/13 09:20:36;;;;;;;4.00;1.25;;;;;;;6.63;69.26;99845.03;4955966;29;20051;-72
2023/01/13 09:23:03;;;;;;;7.18;1.23;;;;;;;6.71;69.26;99863.78;4954891;29;20052;-70
2023/01/13 09:25:31;;;;;;;3.38;1.10;;;;;;;6.60;69.21;99862.19;4954333;29;20051;-74
2023/01/13 09:27:58;;;;;;;2.58;0.80;;;;;;;6.47;69.51;99865.25;4953627;29;20044;-73
2023/01/13 09:30:24;;;;;;;13.48;1.25;;;;;;;6.57;69.15;99862.50;4957446;29;20091;-73
2023/01/13 09:34:58;;;;;;;8.25;1.17;;;;;;;6.54;69.41;99859.31;4954066;29;20054;-72
2023/01/13 09:35:37;;;;;;;5.32;1.15;;;;;;;6.78;69.24;99856.00;4957436;29;20112;-74
2023/01/13 09:38:05;;;;;;;8.57;0.95;;;;;;;6.67;68.99;99841.91;4957375;29;20051;-73
2023/01/13 09:40:31;;;;;;;6.28;0.80;;;;;;;6.88;68.14;99844.22;4953780;29;20055;-74
2023/01/13 09:46:42;;;;;;;9.35;0.80;;;;;;;6.66;68.64;99832.22;4956966;29;20032;-74
2023/01/13 09:48:58;;;;;;;6.40;0.95;;;;;;;6.66;68.85;99839.41;4957403;29;20047;-73
2023/01/13 09:51:36;;;;;;;4.57;0.60;;;;;;;6.47;69.06;99845.78;4956420;28;20099;-73
2023/01/13 09:54:15;;;;;;;4.43;0.70;;;;;;;6.52;68.63;99847.97;4957723;28;20052;-73
2023/01/13 09:56:42;;;;;;;4.65;0.85;;;;;;;6.73;68.52;99859.09;4957352;29;20072;-72
2023/01/13 09:59:11;;;;;;;3.70;0.85;;;;;;;6.91;67.53;99857.25;4958498;29;20035;-71
2023/01/13 10:01:44;;;;;;;3.53;0.68;;;;;;;6.92;67.11;99858.91;4958258;29;20046;-72
2023/01/13 10:04:13;;;;;;;3.88;0.85;;;;;;;6.90;67.05;99865.38;4957872;29;20032;-72
2023/01/13 10:06:45;;;;;;;3.88;0.60;;;;;;;6.68;67.37;99870.25;4958416;29;20115;-72
2023/01/13 10:09:25;;;;;;;2.90;0.75;;;;;;;6.74;67.24;99875.94;4958090;29;20118;-72
2023/01/13 10:14:56;;;;;;;4.90;1.25;;;;;;;6.66;67.04;99874.88;4958068;29;20062;-73
2023/01/13 10:17:27;;;;;;;7.22;1.42;;;;;;;6.88;66.13;99870.88;4957911;29;20051;-73
2023/01/13 10:20:07;;;;;;;2.70;0.90;;;;;;;7.43;64.13;99872.34;4956559;28;20043;-73
2023/01/13 10:22:51;;;;;;;2.92;0.73;;;;;;;7.24;63.75;99864.56;4957250;29;20103;-73
2023/01/13 10:25:59;;;;;;;2.80;0.70;;;;;;;7.19;63.46;99867.72;4957306;28;20043;-72
2023/01/13 10:28:25;;;;;;;9.45;1.10;;;;;;;6.93;63.86;99875.72;4897803;29;20036;-73
2023/01/13 10:30:52;;;;;;;4.43;0.90;;;;;;;6.95;63.62;99869.25;4899515;29;20097;-72
2023/01/13 10:33:23;;;;;;;4.00;0.73;;;;;;;6.91;64.22;99872.38;4895688;29;20061;-72
2023/01/13 10:35:58;;;;;;;2.63;0.80;;;;;;;6.69;64.66;99863.06;4900209;29;20104;-73
2023/01/13 10:38:26;;;;;;;;;;;;;;;6.58;64.55;99864.16;4899927;29;20033;-72
2023/01/13 10:40:59;;;;;;;4.85;0.77;;;;;;;6.51;64.96;99871.09;4900109;29;19908;-72
2023/01/13 10:43:27;;;;;;;2.78;0.65;;;;;;;6.66;64.52;99869.53;4900085;29;20055;-73
2023/01/13 10:45:59;;;;;;;9.75;0.98;;;;;;;6.38;65.19;99854.69;4898837;29;20053;-72
2023/01/13 10:48:33;;;;;;;1.90;0.40;;;;;;;6.60;64.42;99856.88;4899896;29;20040;-72
2023/01/13 10:51:09;;;;;;;5.45;0.88;;;;;;;6.49;64.86;99862.41;4898908;29;20029;-72
2023/01/13 10:53:45;;;;;;;4.47;0.50;;;;;;;6.34;65.02;99863.97;4899324;29;20033;-74
2023/01/13 10:56:17;;;;;;;2.72;0.70;;;;;;;6.26;65.47;99867.41;4898421;29;20112;-72
2023/01/13 10:58:43;;;;;;;4.18;0.80;;;;;;;6.42;64.57;99872.03;4903653;29;20047;-72
2023/01/13 11:01:26;;;;;;;4.35;0.85;;;;;;;6.58;64.21;99856.16;4956958;29;20051;-72
2023/01/13 11:03:54;;;;;;;3.35;0.93;;;;;;;6.45;64.51;99863.72;4957491;28;20057;-72
2023/01/13 11:06:25;;;;;;;1.80;0.82;;;;;;;6.58;64.33;99864.16;4957136;28;20042;-72
2023/01/13 11:08:54;;;;;;;5.35;0.98;;;;;;;6.69;64.00;99866.56;4997923;23;20119;-73
2023/01/13 11:11:37;;;;;;;4.20;0.70;;;;;;;6.97;63.40;99866.41;4914583;29;20478;-73
2023/01/13 11:17:23;;;;;;;2.65;0.68;;;;;;;7.90;59.11;99850.47;4912994;29;20072;-74
2023/01/13 11:19:56;;;;;;;4.40;1.08;;;;;;;8.37;57.27;99864.03;4914120;29;20044;-73
2023/01/13 11:22:28;;;;;;;3.17;0.70;;;;;;;8.61;56.04;99857.84;4914329;29;20048;-73
2023/01/13 11:25:00;;;;;;;4.38;1.15;;;;;;;8.78;55.42;99864.03;4915023;29;20051;-74
2023/01/13 11:27:40;;;;;;;;;;;;;;;8.97;54.78;99856.63;4914643;29;20048;-70
2023/01/13 11:30:33;;;;;;;2.25;0.88;;;;;;;9.16;54.13;99866.09;4914434;29;20005;-73
2023/01/13 11:33:15;;;;;;;3.92;1.05;;;;;;;9.03;53.60;99862.13;4913021;29;20123;-74
2023/01/13 11:35:45;;;;;;;8.85;0.85;;;;;;;8.99;53.41;99870.66;4912982;29;20056;-74
2023/01/13 11:38:27;;;;;;;5.50;0.77;;;;;;;9.56;52.25;99865.16;4914022;29;20040;-72
2023/01/13 11:41:00;;;;;;;7.07;1.33;;;;;;;9.14;52.95;99854.75;4914351;29;20051;-73
2023/01/13 11:43:50;;;;;;;5.53;0.85;;;;;;;9.40;52.53;99858.00;4912839;29;20156;-74
2023/01/13 11:46:17;;;;;;;5.30;0.80;;;;;;;9.34;51.41;99866.75;4913788;29;20044;-73
2023/01/13 11:48:44;;;;;;;4.07;1.00;;;;;;;9.26;51.36;99861.41;4913833;29;20052;-73
2023/01/13 11:51:13;;;;;;;6.10;1.00;;;;;;;9.34;50.93;99857.91;4914623;29;20520;-73
2023/01/13 11:54:04;;;;;;;5.50;1.02;;;;;;;9.57;50.51;99867.63;4913936;29;20131;-72
2023/01/13 11:56:33;;;;;;;5.85;1.17;;;;;;;9.72;50.22;99869.59;4910839;29;20052;-72
2023/01/13 11:59:27;;;;;;;5.50;1.10;;;;;;;9.66;50.18;99870.28;4914181;29;20055;-74
2023/01/13 12:02:08;;;;;;;7.18;1.00;;;;;;;9.33;50.27;99870.41;4879693;29;20131;-74
2023/01/13 12:05:12;;;;;;;4.97;0.93;;;;;;;9.83;49.81;99863.84;4896417;29;20045;-73
2023/01/13 12:08:41;;;;;;;5.03;1.42;;;;;;;10.09;48.68;99862.66;4913377;29;20064;-72
2023/01/13 12:11:22;;;;;;;4.35;0.70;;;;;;;9.64;48.48;99866.94;4887675;29;20529;-72
2023/01/13 12:14:15;;;;;;;7.60;2.10;;;;;;;10.42;47.16;99877.50;4914225;29;20052;-72
2023/01/13 12:16:47;;;;;;;11.32;1.25;;;;;;;9.82;47.87;99880.94;4914012;29;20048;-72
2023/01/13 12:19:23;;;;;;;10.75;1.50;;;;;;;10.21;46.18;99869.28;4912329;29;20056;-74
2023/01/13 12:22:10;;;;;;;6.85;1.25;;;;;;;10.28;46.52;99872.91;4913649;29;25449;-72
2023/01/13 12:24:46;;;;;;;7.97;1.17;;;;;;;10.81;45.17;99871.16;4913335;29;20450;-73
2023/01/13 12:27:23;;;;;;;9.50;1.58;;;;;;;10.91;44.71;99863.66;4913685;29;20089;-73
2023/01/13 12:29:55;;;;;;;8.60;1.70;;;;;;;10.96;43.99;99877.38;4913871;29;20125;-74
2023/01/13 12:32:31;;;;;;;5.28;1.38;;;;;;;10.93;44.14;99869.69;4914178;29;20052;-75
2023/01/13 12:35:34;;;;;;;2.88;1.17;;;;;;;11.71;42.45;99875.53;4913714;29;20055;-72
2023/01/13 12:38:08;;;;;;;11.80;1.17;;;;;;;11.95;41.44;99892.34;4914786;29;20074;-73
2023/01/13 12:41:06;;;;;;;7.38;1.10;;;;;;;11.34;41.92;99874.59;4914393;29;20512;-72
2023/01/13 12:46:20;;;;;;;9.38;1.52;;;;;;;10.45;43.84;99882.50;4914447;29;20548;-73
2023/01/13 12:48:48;;;;;;;8.95;1.27;;;;;;;11.05;42.25;99885.34;4917897;29;20052;-72
2023/01/13 12:51:23;;;;;;;6.38;1.58;;;;;;;9.72;45.30;99883.00;4917872;29;20501;-71
2023/01/13 12:53:51;;;;;;;7.35;1.77;;;;;;;10.10;44.94;99896.47;4918022;29;20732;-70
2023/01/13 12:56:24;;;;;;;10.18;1.70;;;;;;;9.66;45.74;99884.50;4917871;29;20058;-72
2023/01/13 12:58:50;;;;;;;13.85;2.13;;;;;;;9.73;45.99;99892.69;4917927;29;20058;-72
2023/01/13 13:01:33;;;;;;;7.93;1.58;;;;;;;9.66;45.44;99894.41;4918102;29;20497;-72
2023/01/13 13:04:09;;;;;;;9.43;1.48;;;;;;;9.57;45.70;99893.59;4915677;29;20453;-71
2023/01/13 13:06:38;;;;;;;8.70;1.50;;;;;;;9.60;46.02;99892.41;4916877;29;20054;-71
2023/01/13 13:09:13;;;;;;;15.57;1.63;;;;;;;9.48;46.19;99895.47;4916684;29;20494;-71
2023/01/13 13:14:40;;;;;;;13.70;1.88;;;;;;;8.74;47.46;99899.28;4916332;29;20137;-72
2023/01/13 13:17:28;;;;;;;13.55;1.88;;;;;;;8.55;48.27;99895.13;4916514;29;20044;-72
2023/01/13 13:19:56;;;;;;;9.43;1.75;;;;;;;8.38;48.69;99904.97;4917391;29;20107;-71
2023/01/13 13:22:26;;;;;;;10.23;1.92;;;;;;;8.39;48.81;99906.63;4917390;29;20124;-71
2023/01/13 13:24:56;;;;;;;19.52;1.73;;;;;;;8.23;49.08;99902.13;4916717;29;20055;-72
2023/01/13 13:27:29;;;;;;;6.03;1.73;;;;;;;8.31;48.98;99903.97;4916355;29;20048;-72
2023/01/13 13:29:55;;;;;;;11.05;1.65;;;;;;;8.33;48.96;99897.47;4917260;29;20048;-72